Time;durP1;ratioP1;P1;durP2;ratioP2;P2;SDS_P1;SDS_P2;PMS_P1;PMS_P2;Temp;Humidity;BMP_temperature;BMP_pressure;BME280_temperature;BME280_humidity;BME280_pressure;Samples;Min_cycle;Max_cycle;Signal;HPM_P1;HPM_P2
2022/04/19 00:00:42;;;;;;;17.33;11.63;;;8.00;99.90;;;;;;5093202;28;20032;-69
2022/04/19 00:03:09;;;;;;;17.00;11.65;;;7.90;99.90;;;;;;5092944;28;20028;-68
2022/04/19 00:05:36;;;;;;;15.43;11.32;;;7.90;99.90;;;;;;5092981;28;20028;-68
2022/04/19 00:08:03;;;;;;;18.23;11.68;;;7.80;99.90;;;;;;5093169;28;20051;-68
2022/04/19 00:10:29;;;;;;;17.73;11.00;;;7.80;99.90;;;;;;5092945;28;20030;-69
2022/04/19 00:12:57;;;;;;;19.45;11.30;;;7.70;99.90;;;;;;5091729;28;20111;-69
2022/04/19 00:15:25;;;;;;;17.63;11.55;;;7.70;99.90;;;;;;5092841;28;20082;-69
2022/04/19 00:17:51;;;;;;;15.90;10.73;;;7.70;99.90;;;;;;5093027;28;20032;-69
2022/04/19 00:20:17;;;;;;;17.52;10.35;;;7.60;99.90;;;;;;5093024;28;20039;-69
2022/04/19 00:22:42;;;;;;;15.00;10.18;;;7.50;99.90;;;;;;5092706;28;20081;-68
2022/04/19 00:25:08;;;;;;;17.40;11.18;;;7.50;99.90;;;;;;5092995;28;20073;-69
2022/04/19 00:27:34;;;;;;;19.98;11.02;;;7.50;99.90;;;;;;5092788;28;20107;-69
2022/04/19 00:30:00;;;;;;;18.40;11.13;;;7.40;99.90;;;;;;5092934;28;20153;-68
2022/04/19 00:32:26;;;;;;;19.42;11.80;;;7.30;99.90;;;;;;5095072;28;20016;-69
2022/04/19 00:34:51;;;;;;;17.75;11.55;;;7.30;99.90;;;;;;5096310;28;20088;-68
2022/04/19 00:37:18;;;;;;;20.08;12.27;;;7.30;99.90;;;;;;5096239;28;20106;-68
2022/04/19 00:39:44;;;;;;;21.45;11.63;;;7.20;99.90;;;;;;5096299;28;20031;-68
2022/04/19 00:42:10;;;;;;;20.95;12.93;;;7.10;99.90;;;;;;5096245;28;20434;-68
2022/04/19 00:44:39;;;;;;;22.67;12.98;;;;;;;;;;5096367;28;20032;-69
2022/04/19 00:47:07;;;;;;;20.90;13.57;;;;;;;;;;5094951;28;20115;-69
2022/04/19 00:49:33;;;;;;;22.10;13.70;;;;;;;;;;5094989;28;20055;-69
2022/04/19 00:51:59;;;;;;;22.08;13.95;;;;;;;;;;5095098;28;20046;-68
2022/04/19 00:54:25;;;;;;;21.10;13.18;;;;;;;;;;5095973;28;20093;-69
2022/04/19 00:56:53;;;;;;;23.38;13.50;;;;;;;;;;5095846;28;20032;-69
2022/04/19 00:59:20;;;;;;;19.17;12.55;;;;;;;;;;5095793;28;20114;-69
2022/04/19 01:01:46;;;;;;;20.88;12.40;;;;;;;;;;5095808;28;20103;-69
2022/04/19 01:04:12;;;;;;;21.58;12.20;;;;;;;;;;5095923;28;20558;-68
2022/04/19 01:06:38;;;;;;;21.05;11.63;;;;;;;;;;5095927;28;20099;-68
2022/04/19 01:09:04;;;;;;;21.75;12.30;;;;;;;;;;5094296;28;20020;-69
2022/04/19 01:14:17;;;;;;;18.50;12.00;;;;;;;;;;5095406;28;20435;-69
2022/04/19 01:16:42;;;;;;;23.70;12.35;;;;;;;;;;5095579;28;20047;-69
2022/04/19 01:19:15;;;;;;;19.08;12.60;;;;;;;;;;5095454;28;20032;-69
2022/04/19 01:21:57;;;;;;;19.95;12.43;;;;;;;;;;5095675;28;20474;-69
2022/04/19 01:24:23;;;;;;;22.30;13.25;;;;;;;;;;5095198;28;20048;-69
2022/04/19 01:26:49;;;;;;;19.80;12.50;;;;;;;;;;5095248;28;20106;-68
2022/04/19 01:29:16;;;;;;;19.95;13.18;;;;;;;;;;5095277;28;20099;-68
2022/04/19 01:31:43;;;;;;;21.80;13.23;;;;;;;;;;5094016;28;20391;-68
2022/04/19 01:34:09;;;;;;;27.63;12.98;;;;;;;;;;5095515;28;20363;-68
2022/04/19 01:36:36;;;;;;;22.50;13.10;;;;;;;;;;5095177;28;20478;-68
2022/04/19 01:39:03;;;;;;;20.15;12.73;;;;;;;;;;5095092;28;20518;-68
2022/04/19 01:41:29;;;;;;;25.73;11.93;;;;;;;;;;5095118;28;20478;-69
2022/04/19 01:43:55;;;;;;;19.88;11.48;;;;;;;;;;5094917;28;20432;-68
2022/04/19 01:46:23;;;;;;;20.50;11.55;;;;;;;;;;5094896;28;20052;-68
2022/04/19 01:48:49;;;;;;;17.77;10.38;;;;;;;;;;5095127;28;20411;-69
2022/04/19 01:51:15;;;;;;;20.83;13.30;;;;;;;;;;5094880;28;20085;-69
2022/04/19 01:53:41;;;;;;;19.20;11.80;;;;;;;;;;5094792;28;20028;-69
2022/04/19 01:56:07;;;;;;;19.45;12.75;;;;;;;;;;5093461;28;20036;-68
2022/04/19 01:58:33;;;;;;;16.92;12.27;;;;;;;;;;5094773;28;20032;-69
2022/04/19 02:00:59;;;;;;;20.70;12.93;;;;;;;;;;5094675;28;20543;-69
2022/04/19 02:03:25;;;;;;;20.98;13.23;;;;;;;;;;5094499;28;20482;-69
2022/04/19 02:05:51;;;;;;;21.45;13.13;;;;;;;;;;5094557;28;20022;-68
2022/04/19 02:08:17;;;;;;;23.65;13.52;;;;;;;;;;5094720;28;20024;-69
2022/04/19 02:10:43;;;;;;;21.75;11.15;;;;;;;;;;5094468;28;20031;-68
2022/04/19 02:13:09;;;;;;;19.80;11.10;;;;;;;;;;5094347;28;20028;-68
2022/04/19 02:15:35;;;;;;;22.02;10.75;;;;;;;;;;5094407;28;20498;-68
2022/04/19 02:18:01;;;;;;;18.63;11.25;;;;;;;;;;5094287;28;20127;-68
2022/04/19 02:20:27;;;;;;;17.33;10.95;;;;;;;;;;5093235;28;20020;-68
2022/04/19 02:22:53;;;;;;;18.67;10.93;;;;;;;;;;5093896;28;20054;-68
2022/04/19 02:25:19;;;;;;;19.10;11.88;;;;;;;;;;5094150;28;20423;-69
2022/04/19 02:27:45;;;;;;;23.10;13.60;;;;;;;;;;5094206;28;20052;-69
2022/04/19 02:30:14;;;;;;;18.80;12.25;;;;;;;;;;5094085;28;20036;-69
2022/04/19 02:32:41;;;;;;;18.45;11.70;;;;;;;;;;5094085;28;20027;-68
2022/04/19 02:35:07;;;;;;;19.38;12.43;;;;;;;;;;5094008;28;20064;-68
2022/04/19 02:37:33;;;;;;;19.98;11.77;;;;;;;;;;5094015;28;20021;-68
2022/04/19 02:39:59;;;;;;;20.38;11.30;;;;;;;;;;5093943;28;20024;-69
2022/04/19 02:42:25;;;;;;;16.23;10.98;;;;;;;;;;5092592;28;20390;-68
2022/04/19 02:44:51;;;;;;;20.80;11.57;;;;;;;;;;5094024;28;20497;-68
2022/04/19 02:47:17;;;;;;;20.25;11.95;;;;;;;;;;5093782;28;20024;-68
2022/04/19 02:49:45;;;;;;;21.77;12.75;;;;;;;;;;5093738;28;20020;-69
2022/04/19 02:52:11;;;;;;;20.80;11.90;;;;;;;;;;5093749;28;20020;-69
2022/04/19 02:54:37;;;;;;;18.42;12.15;;;;;;;;;;5093219;28;20398;-68
2022/04/19 02:57:03;;;;;;;17.08;11.63;;;;;;;;;;5093629;28;20032;-69
2022/04/19 02:59:29;;;;;;;18.67;11.70;;;;;;;;;;5093612;28;20398;-69
2022/04/19 03:01:55;;;;;;;17.83;11.15;;;;;;;;;;5093801;28;20107;-68
2022/04/19 03:04:21;;;;;;;22.10;12.07;;;;;;;;;;5093377;28;20449;-68
2022/04/19 03:06:48;;;;;;;19.80;12.82;;;;;;;;;;5093732;28;20099;-69
2022/04/19 03:09:14;;;;;;;19.38;12.30;;;;;;;;;;5093435;28;20027;-68
2022/04/19 03:11:40;;;;;;;18.02;11.10;;;;;;;;;;5093445;28;20024;-69
2022/04/19 03:14:06;;;;;;;18.17;11.05;;;;;;;;;;5093459;28;20069;-69
2022/04/19 03:16:32;;;;;;;18.40;12.23;;;;;;;;;;5093533;28;20024;-69
2022/04/19 03:18:58;;;;;;;21.98;13.27;;;;;;;;;;5093640;28;20477;-68
2022/04/19 03:21:24;;;;;;;21.60;13.23;;;;;;;;;;5093312;28;20032;-69
2022/04/19 03:29:22;;;;;;;23.70;12.90;;;;;;;;;;5093114;28;20028;-68
2022/04/19 03:31:48;;;;;;;21.45;12.55;;;;;;;;;;5093178;28;20012;-69
2022/04/19 03:34:14;;;;;;;19.02;11.93;;;;;;;;;;5093199;28;20038;-69
2022/04/19 03:36:41;;;;;;;21.77;12.52;;;;;;;;;;5093183;28;20371;-69
2022/04/19 03:39:07;;;;;;;19.50;11.88;;;;;;;;;;5093172;28;20402;-68
2022/04/19 03:41:33;;;;;;;20.33;12.63;;;;;;;;;;5093122;28;20029;-69
2022/04/19 03:43:58;;;;;;;20.17;12.55;;;;;;;;;;5091916;28;20035;-69
2022/04/19 03:46:24;;;;;;;21.92;13.13;;;;;;;;;;5093053;28;20028;-69
2022/04/19 03:48:50;;;;;;;19.42;12.13;;;;;;;;;;5093289;28;20484;-69
2022/04/19 03:51:16;;;;;;;20.83;11.43;;;;;;;;;;5093064;28;20471;-69
2022/04/19 03:53:42;;;;;;;18.65;12.05;;;;;;;;;;5093046;28;20020;-68
2022/04/19 03:56:09;;;;;;;20.25;12.32;;;;;;;;;;5092932;28;20028;-69
2022/04/19 03:58:35;;;;;;;18.85;11.80;;;;;;;;;;5093061;28;20020;-69
2022/04/19 04:01:01;;;;;;;20.95;12.48;;;;;;;;;;5092974;28;20035;-68
2022/04/19 04:03:28;;;;;;;22.17;13.02;;;;;;;;;;5093092;28;20032;-68
2022/04/19 04:05:55;;;;;;;20.65;13.02;;;;;;;;;;5094336;28;20020;-68
2022/04/19 04:08:21;;;;;;;20.75;12.27;;;;;;;;;;5096878;28;20024;-68
2022/04/19 04:10:47;;;;;;;18.15;11.55;;;;;;;;;;5096784;28;20032;-68
2022/04/19 04:13:13;;;;;;;20.35;12.32;;;;;;;;;;5096752;28;20071;-68
2022/04/19 04:15:38;;;;;;;21.30;12.75;;;;;;;;;;5096679;28;20036;-69
2022/04/19 04:18:04;;;;;;;19.55;12.20;;;;;;;;;;5096641;28;20040;-69
2022/04/19 04:20:30;;;;;;;22.58;13.80;;;;;;;;;;5096651;28;20035;-68
2022/04/19 04:22:56;;;;;;;19.92;12.23;;;;;;;;;;5096208;28;20103;-68
2022/04/19 04:25:22;;;;;;;20.42;12.57;;;;;;;;;;5096483;28;20023;-69
2022/04/19 04:27:48;;;;;;;22.13;12.85;;;;;;;;;;5096485;28;20024;-69
2022/04/19 04:30:14;;;;;;;24.60;14.18;;;;;;;;;;5096416;28;20028;-68
2022/04/19 04:32:40;;;;;;;24.27;12.98;;;;;;;;;;5096374;28;20016;-68
2022/04/19 04:35:07;;;;;;;20.92;13.20;;;;;;;;;;5096312;28;20028;-69
2022/04/19 04:37:33;;;;;;;20.08;12.43;;;;;;;;;;5095188;28;20099;-68
2022/04/19 04:39:59;;;;;;;23.45;13.18;;;;;;;;;;5096216;28;20432;-68
2022/04/19 04:42:25;;;;;;;25.25;14.73;;;;;;;;;;5095025;28;20081;-68
2022/04/19 04:44:51;;;;;;;24.80;14.30;;;;;;;;;;5096042;28;20051;-68
2022/04/19 04:50:03;;;;;;;24.85;14.77;;;;;;;;;;5095906;28;20025;-68
2022/04/19 04:52:29;;;;;;;24.00;15.10;;;;;;;;;;5094728;28;20028;-68
2022/04/19 04:54:55;;;;;;;27.10;15.63;;;;;;;;;;5095952;28;20130;-69
2022/04/19 04:57:21;;;;;;;24.70;14.10;;;;;;;;;;5095880;28;20490;-68
2022/04/19 04:59:48;;;;;;;25.08;14.63;;;;;;;;;;5095813;28;20106;-69
2022/04/19 05:02:14;;;;;;;24.70;14.95;;;;;;;;;;5095906;28;20020;-68
2022/04/19 05:04:40;;;;;;;24.95;14.95;;;;;;;;;;5095691;28;20115;-69
2022/04/19 05:07:06;;;;;;;26.30;14.75;;;;;;;;;;5094581;28;20044;-69
2022/04/19 05:09:32;;;;;;;29.80;15.65;;;;;;;;;;5094502;28;20027;-69
2022/04/19 05:11:58;;;;;;;25.42;15.27;;;;;;;;;;5095859;28;20122;-68
2022/04/19 05:14:24;;;;;;;25.13;13.88;;;;;;;;;;5094311;28;20028;-69
2022/04/19 05:16:50;;;;;;;31.50;15.52;;;;;;;;;;5095147;28;20557;-68
2022/04/19 05:19:16;;;;;;;27.10;14.98;;;;;;;;;;5095507;28;20035;-69
2022/04/19 05:21:42;;;;;;;23.33;13.95;;;;;;;;;;5095517;28;20103;-69
2022/04/19 05:24:09;;;;;;;25.58;14.55;;;;;;;;;;5095101;28;20044;-68
2022/04/19 05:26:35;;;;;;;29.38;15.05;;;;;;;;;;5095530;28;20024;-68
2022/04/19 05:29:01;;;;;;;23.08;13.50;;;;;;;;;;5095451;28;20545;-69
2022/04/19 05:31:27;;;;;;;24.17;14.57;;;;;;;;;;5095437;28;20099;-68
2022/04/19 05:33:53;;;;;;;25.88;14.00;;;;;;;;;;5095178;28;20062;-68
2022/04/19 05:36:20;;;;;;;26.08;14.68;;;;;;;;;;5095283;28;20393;-68
2022/04/19 05:38:49;;;;;;;25.33;13.65;;;;;;;;;;5093880;28;20031;-68
2022/04/19 05:41:15;;;;;;;23.60;13.75;;;;;;;;;;5093774;28;20028;-69
2022/04/19 05:43:40;;;;;;;19.45;12.70;;;;;;;;;;5094898;28;20024;-68
2022/04/19 05:46:06;;;;;;;20.35;12.80;;;8.70;99.90;;;;;;5093723;28;20021;-68
2022/04/19 05:48:31;;;;;;;20.95;12.05;;;9.10;99.90;;;;;;5095024;28;20028;-69
2022/04/19 05:50:57;;;;;;;25.02;12.55;;;10.50;99.90;;;;;;5094879;28;20020;-69
2022/04/19 05:53:23;;;;;;;18.17;11.48;;;12.30;99.90;;;;;;5093933;28;20017;-69
2022/04/19 05:55:48;;;;;;;17.90;11.45;;;14.00;99.90;;;;;;5095065;28;20421;-69
2022/04/19 05:58:14;;;;;;;17.65;12.05;;;15.10;97.60;;;;;;5095009;28;20035;-69
2022/04/19 06:00:39;;;;;;;18.27;12.23;;;15.50;92.90;;;;;;5094910;28;20174;-66
2022/04/19 06:05:50;;;;;;;16.73;11.98;;;16.60;85.60;;;;;;5094433;28;20020;-67
2022/04/19 06:08:16;;;;;;;14.85;11.20;;;17.20;83.30;;;;;;5094591;28;20073;-67
2022/04/19 06:10:42;;;;;;;15.48;11.63;;;17.30;81.00;;;;;;5094782;28;20043;-67
2022/04/19 06:13:08;;;;;;;14.35;11.65;;;17.60;79.70;;;;;;5093587;28;20107;-67
2022/04/19 06:15:34;;;;;;;18.05;11.00;;;17.50;78.40;;;;;;5094363;28;20020;-67
2022/04/19 06:18:00;;;;;;;13.95;10.73;;;17.90;75.30;;;;;;5093010;28;20023;-67
2022/04/19 06:20:26;;;;;;;15.13;10.82;;;17.70;76.80;;;;;;5094507;28;20521;-67
2022/04/19 06:22:51;;;;;;;17.17;11.25;;;18.00;74.80;;;;;;5093941;28;20020;-70
2022/04/19 06:25:17;;;;;;;12.75;10.40;;;18.30;73.40;;;;;;5093930;28;20051;-68
2022/04/19 06:27:43;;;;;;;15.15;11.55;;;18.50;71.20;;;;;;5093763;28;20109;-68
2022/04/19 06:30:09;;;;;;;13.40;11.50;;;18.50;70.20;;;;;;5093857;28;20491;-68
2022/04/19 06:32:35;;;;;;;13.02;10.95;;;19.30;66.90;;;;;;5093220;28;20051;-68
2022/04/19 06:35:00;;;;;;;13.65;11.27;;;17.20;69.20;;;;;;5094150;28;20093;-68
2022/04/19 06:37:26;;;;;;;13.38;10.93;;;16.50;72.20;;;;;;5093958;28;20356;-68
2022/04/19 06:39:51;;;;;;;13.88;10.98;;;17.20;71.80;;;;;;5093950;28;20073;-68
2022/04/19 06:42:17;;;;;;;12.68;10.65;;;17.70;72.10;;;;;;5093904;28;20024;-68
2022/04/19 06:44:43;;;;;;;12.68;10.48;;;17.30;70.20;;;;;;5093664;28;20077;-68
2022/04/19 06:47:08;;;;;;;13.27;10.63;;;17.80;69.90;;;;;;5093750;28;20024;-68
2022/04/19 06:49:34;;;;;;;12.38;10.77;;;18.20;70.40;;;;;;5093774;28;20095;-68
2022/04/19 06:51:59;;;;;;;12.80;11.25;;;18.20;68.40;;;;;;5093967;28;20020;-69
2022/04/19 06:54:25;;;;;;;16.85;11.07;;;18.60;67.80;;;;;;5093763;28;20067;-68
2022/04/19 06:56:51;;;;;;;16.40;11.45;;;19.40;67.30;;;;;;5093919;28;20035;-68
2022/04/19 06:59:16;;;;;;;17.33;11.43;;;19.70;64.10;;;;;;5092713;28;20027;-68
2022/04/19 07:01:43;;;;;;;15.13;11.63;;;19.40;65.00;;;;;;5093813;28;20074;-68
2022/04/19 07:04:09;;;;;;;15.57;11.35;;;19.30;66.50;;;;;;5081727;28;20028;-68
2022/04/19 07:06:35;;;;;;;17.15;11.13;;;19.70;64.90;;;;;;5073181;28;20025;-69
2022/04/19 07:09:00;;;;;;;12.40;10.82;;;20.80;63.30;;;;;;5072145;28;20497;-69
2022/04/19 07:11:26;;;;;;;16.50;11.40;;;21.10;60.00;;;;;;5073234;28;20020;-69
2022/04/19 07:13:52;;;;;;;16.83;11.30;;;20.90;59.10;;;;;;5073172;28;20033;-69
2022/04/19 07:16:17;;;;;;;14.40;11.23;;;21.50;58.40;;;;;;5073412;28;20078;-69
2022/04/19 07:18:43;;;;;;;15.10;11.15;;;21.50;56.60;;;;;;5073174;28;20032;-69
2022/04/19 07:26:41;;;;;;;14.38;11.23;;;23.00;56.20;;;;;;5072901;28;20021;-69
2022/04/19 07:29:10;;;;;;;14.98;11.45;;;21.80;56.90;;;;;;5071861;28;20407;-69
2022/04/19 07:31:37;;;;;;;13.55;11.07;;;21.70;57.30;;;;;;5072971;28;20078;-69
2022/04/19 07:34:02;;;;;;;13.18;10.13;;;22.40;55.00;;;;;;5073077;28;20059;-70
2022/04/19 07:36:28;;;;;;;17.27;10.20;;;23.80;53.00;;;;;;5072916;28;20056;-70
2022/04/19 07:38:54;;;;;;;14.65;9.38;;;24.00;51.80;;;;;;5071786;28;20376;-70
2022/04/19 07:41:20;;;;;;;15.38;10.60;;;22.70;52.90;;;;;;5077061;28;20025;-70
2022/04/19 07:43:47;;;;;;;13.18;10.40;;;21.80;53.80;;;;;;5077123;28;20111;-69
2022/04/19 07:46:15;;;;;;;15.70;11.20;;;21.50;53.90;;;;;;5077228;28;20016;-69
2022/04/19 07:48:42;;;;;;;18.95;10.73;;;20.80;56.20;;;;;;5077267;28;20070;-69
2022/04/19 07:51:07;;;;;;;12.98;10.68;;;21.70;56.60;;;;;;5075830;28;20494;-69
2022/04/19 07:53:33;;;;;;;14.68;9.80;;;22.10;54.80;;;;;;5076717;28;20032;-69
2022/04/19 07:55:58;;;;;;;12.30;8.95;;;23.10;54.50;;;;;;5076724;28;20033;-70
2022/04/19 07:58:24;;;;;;;12.13;8.55;;;23.30;51.70;;;;;;5076717;28;20154;-69
2022/04/19 08:00:50;;;;;;;12.27;8.68;;;22.90;50.90;;;;;;5076690;28;20081;-69
2022/04/19 08:03:16;;;;;;;12.25;8.23;;;21.50;53.10;;;;;;5076560;28;20115;-69
2022/04/19 08:05:41;;;;;;;11.93;8.60;;;19.80;55.30;;;;;;5076678;28;20480;-69
2022/04/19 08:08:07;;;;;;;12.55;8.20;;;21.70;53.40;;;;;;5076566;28;20028;-69
2022/04/19 08:10:33;;;;;;;13.20;8.68;;;22.00;51.70;;;;;;5076604;28;20052;-69
2022/04/19 08:12:58;;;;;;;13.27;7.28;;;21.70;51.80;;;;;;5075197;28;20020;-69
2022/04/19 08:15:24;;;;;;;11.32;7.90;;;21.50;51.00;;;;;;5076362;28;20028;-69
2022/04/19 08:17:50;;;;;;;11.70;7.97;;;22.40;52.50;;;;;;5076575;28;20021;-69
2022/04/19 08:20:16;;;;;;;12.65;7.90;;;21.80;50.70;;;;;;5076599;28;20043;-69
2022/04/19 08:22:42;;;;;;;9.52;7.93;;;21.90;51.70;;;;;;5076209;28;20016;-69
2022/04/19 08:25:10;;;;;;;10.40;7.13;;;22.30;50.30;;;;;;5075894;28;20067;-69
2022/04/19 08:27:42;;;;;;;12.02;8.05;;;22.90;51.00;;;;;;5076390;28;20028;-68
2022/04/19 08:30:09;;;;;;;10.35;7.18;;;22.30;50.80;;;;;;5076270;28;20112;-68
2022/04/19 08:32:35;;;;;;;13.07;7.85;;;22.80;49.10;;;;;;5076281;28;20523;-68
2022/04/19 08:35:01;;;;;;;14.18;7.90;;;21.70;51.20;;;;;;5075982;28;20063;-68
2022/04/19 08:37:30;;;;;;;11.35;7.00;;;23.10;50.30;;;;;;5076190;28;20257;-68
2022/04/19 08:39:56;;;;;;;12.52;8.23;;;22.90;49.80;;;;;;5075880;28;20021;-69
2022/04/19 08:42:22;;;;;;;14.18;8.20;;;22.00;48.50;;;;;;5075909;28;20074;-69
2022/04/19 08:44:48;;;;;;;14.68;7.78;;;21.90;49.80;;;;;;5075854;28;20056;-69
2022/04/19 08:47:14;;;;;;;12.32;7.00;;;21.70;49.50;;;;;;5075724;28;20063;-69
2022/04/19 08:49:42;;;;;;;11.85;7.40;;;21.40;50.60;;;;;;5075686;28;20027;-69
2022/04/19 08:52:08;;;;;;;12.27;6.75;;;22.40;50.30;;;;;;5075169;28;20364;-69
2022/04/19 08:57:35;;;;;;;13.43;7.32;;;22.40;48.60;;;;;;5075413;28;20028;-69
2022/04/19 09:00:04;;;;;;;12.10;7.57;;;21.20;52.80;;;;;;5075605;28;20067;-69
2022/04/19 09:02:32;;;;;;;11.40;6.40;;;20.50;52.40;;;;;;5075559;28;20108;-69
2022/04/19 09:05:20;;;;;;;12.40;7.75;;;21.70;51.10;;;;;;5075454;28;20028;-69
2022/04/19 09:07:48;;;;;;;11.75;7.15;;;21.50;49.60;;;;;;5075444;28;20032;-69
2022/04/19 09:10:15;;;;;;;9.88;7.18;;;21.60;50.80;;;;;;5075338;28;20031;-69
2022/04/19 09:13:09;;;;;;;11.18;7.22;;;21.90;51.30;;;;;;5075418;28;20017;-69
2022/04/19 09:15:39;;;;;;;10.13;7.38;;;22.40;48.80;;;;;;5075319;28;20026;-69
2022/04/19 09:21:01;;;;;;;11.90;7.40;;;22.60;50.60;;;;;;5103197;27;20218;-70
2022/04/19 09:23:29;;;;;;;11.85;8.00;;;23.30;48.80;;;;;;5070660;28;20548;-70
2022/04/19 09:25:58;;;;;;;13.55;8.20;;;23.90;47.80;;;;;;5070389;28;20021;-70
2022/04/19 09:28:25;;;;;;;11.32;7.75;;;23.30;48.40;;;;;;5070365;28;20491;-70
2022/04/19 09:30:53;;;;;;;9.25;6.85;;;22.70;50.80;;;;;;5070302;28;20048;-70
2022/04/19 09:33:20;;;;;;;10.07;6.25;;;23.00;49.60;;;;;;5070282;28;20438;-70
2022/04/19 09:36:02;;;;;;;8.57;6.45;;;23.40;49.80;;;;;;5070232;28;20017;-70
2022/04/19 09:38:46;;;;;;;10.20;6.32;;;23.00;49.70;;;;;;5070441;28;20025;-70
2022/04/19 09:41:27;;;;;;;11.38;7.35;;;22.60;49.90;;;;;;5070233;28;20035;-70
2022/04/19 09:44:06;;;;;;;9.73;6.43;;;21.50;50.80;;;;;;5069996;28;20079;-70
2022/04/19 09:46:31;;;;;;;11.57;7.05;;;22.50;50.60;;;;;;5070189;28;20029;-70
2022/04/19 09:48:57;;;;;;;8.85;6.43;;;22.30;49.30;;;;;;5069925;28;20112;-70
2022/04/19 09:51:31;;;;;;;10.52;7.32;;;22.80;50.50;;;;;;5068644;28;20035;-70
2022/04/19 09:53:57;;;;;;;10.00;6.47;;;23.40;50.70;;;;;;5068965;28;20536;-70
2022/04/19 09:56:22;;;;;;;8.43;6.00;;;22.80;48.90;;;;;;5069852;28;20103;-70
2022/04/19 09:58:50;;;;;;;13.60;6.30;;;22.50;52.00;;;;;;5069974;28;20028;-70
2022/04/19 10:09:38;;;;;;;8.77;5.32;;;21.30;52.10;;;;;;5069343;28;20029;-70
2022/04/19 10:12:06;;;;;;;7.88;5.93;;;21.60;52.30;;;;;;5069437;28;20060;-69
2022/04/19 10:14:33;;;;;;;7.38;5.72;;;19.80;54.40;;;;;;5069412;28;20020;-69
2022/04/19 10:16:59;;;;;;;9.00;6.13;;;19.70;55.70;;;;;;5069442;28;20025;-70
2022/04/19 10:19:27;;;;;;;8.27;6.22;;;20.40;55.10;;;;;;5069009;28;20055;-70
2022/04/19 10:21:53;;;;;;;7.50;5.40;;;21.40;56.80;;;;;;5068141;28;20059;-70
2022/04/19 10:24:20;;;;;;;8.45;5.22;;;22.10;52.70;;;;;;5069191;28;20510;-70
2022/04/19 10:26:47;;;;;;;6.13;5.18;;;22.60;52.00;;;;;;5069366;28;20032;-70
2022/04/19 10:29:22;;;;;;;7.78;5.15;;;22.70;50.50;;;;;;5069311;28;20505;-70
2022/04/19 10:32:07;;;;;;;8.68;5.70;;;21.80;52.20;;;;;;5059114;28;20029;-70
2022/04/19 10:34:36;;;;;;;7.07;5.40;;;22.70;53.80;;;;;;5055755;28;20079;-70
2022/04/19 10:37:23;;;;;;;6.32;5.30;;;22.90;51.60;;;;;;5055952;28;20506;-70
2022/04/19 10:39:52;;;;;;;9.50;5.00;;;21.10;52.70;;;;;;5054419;28;20029;-70
2022/04/19 10:42:34;;;;;;;8.15;5.28;;;21.10;52.10;;;;;;5055940;28;20025;-70
2022/04/19 10:45:20;;;;;;;6.45;5.68;;;21.50;55.00;;;;;;5055649;28;20017;-70
2022/04/19 10:50:35;;;;;;;7.50;5.65;;;21.40;54.10;;;;;;5125795;27;20393;-69
2022/04/19 10:53:04;;;;;;;6.60;5.30;;;20.60;52.90;;;;;;5109863;28;20028;-69
2022/04/19 10:55:32;;;;;;;7.90;5.75;;;20.30;54.20;;;;;;5111213;28;20027;-69
2022/04/19 11:00:45;;;;;;;7.40;5.70;;;19.70;55.30;;;;;;5127071;27;20132;-69
2022/04/19 11:03:17;;;;;;;7.60;5.18;;;19.60;55.70;;;;;;5111327;28;20111;-69
2022/04/19 11:05:59;;;;;;;8.15;5.82;;;19.70;55.50;;;;;;5111247;28;20496;-69
2022/04/19 11:13:40;;;;;;;7.03;6.15;;;19.60;57.00;;;;;;5144218;27;20121;-69
2022/04/19 11:21:56;;;;;;;10.23;6.38;;;18.80;58.10;;;;;;5123509;27;20134;-69
2022/04/19 11:25:02;;;;;;;13.30;6.85;;;19.20;59.30;;;;;;5090540;28;20390;-70
2022/04/19 11:30:30;;;;;;;7.65;5.75;;;18.30;61.20;;;;;;5123528;27;20503;-70
2022/04/19 11:32:58;;;;;;;11.93;6.20;;;19.20;59.50;;;;;;5090905;28;20039;-69
2022/04/19 11:35:26;;;;;;;8.27;6.13;;;19.20;58.70;;;;;;5090596;28;20044;-69
2022/04/19 11:37:52;;;;;;;9.63;5.80;;;18.80;58.80;;;;;;5090576;28;20027;-70
2022/04/19 11:48:45;;;;;;;5.25;4.13;;;18.60;59.50;;;;;;5090274;27;20029;-70
2022/04/19 11:51:12;;;;;;;6.72;4.03;;;18.60;59.20;;;;;;5090413;28;20021;-70
2022/04/19 11:53:38;;;;;;;5.00;3.85;;;18.40;56.80;;;;;;5106116;28;20038;-69
2022/04/19 11:56:06;;;;;;;5.32;3.53;;;18.10;57.70;;;;;;5090505;27;20021;-70
2022/04/19 11:58:32;;;;;;;5.30;3.60;;;18.30;58.70;;;;;;5090158;28;20051;-69
2022/04/19 12:01:03;;;;;;;4.30;3.50;;;18.70;57.80;;;;;;5090153;28;20068;-69
2022/04/19 12:03:33;;;;;;;4.18;3.60;;;18.50;57.70;;;;;;5089186;28;20035;-69
2022/04/19 12:06:12;;;;;;;4.10;3.40;;;18.50;58.10;;;;;;5090102;28;20028;-69
2022/04/19 12:08:41;;;;;;;5.80;3.55;;;18.50;58.40;;;;;;5090088;28;20056;-69
2022/04/19 12:11:10;;;;;;;5.47;3.72;;;18.70;58.00;;;;;;5089558;28;20024;-69
2022/04/19 12:13:36;;;;;;;6.20;3.90;;;19.20;59.10;;;;;;5089565;28;20076;-69
2022/04/19 12:16:04;;;;;;;6.00;4.25;;;18.70;57.70;;;;;;5089762;28;20531;-69
2022/04/19 12:18:32;;;;;;;4.53;4.13;;;18.20;59.00;;;;;;5090055;28;20503;-69
2022/04/19 12:20:58;;;;;;;4.70;4.18;;;18.40;57.90;;;;;;5090082;28;20486;-69
2022/04/19 12:23:23;;;;;;;4.88;3.70;;;18.70;60.40;;;;;;5089682;28;20485;-69
2022/04/19 12:26:10;;;;;;;6.50;4.05;;;18.90;59.00;;;;;;5089619;28;20034;-68
2022/04/19 12:28:39;;;;;;;6.43;3.88;;;18.20;58.20;;;;;;5089290;28;20040;-69
2022/04/19 12:31:05;;;;;;;7.90;4.03;;;18.70;60.00;;;;;;5089553;28;20020;-69
2022/04/19 12:33:31;;;;;;;5.93;4.20;;;18.50;58.90;;;;;;5122376;28;20367;-69
2022/04/19 12:35:57;;;;;;;5.32;3.85;;;18.80;57.70;;;;;;5089772;28;20024;-69
2022/04/19 12:38:31;;;;;;;5.80;3.88;;;18.90;58.30;;;;;;5089732;28;20028;-69
2022/04/19 12:40:58;;;;;;;8.38;4.22;;;18.70;57.70;;;;;;5081425;28;20082;-69
2022/04/19 12:43:44;;;;;;;8.07;5.00;;;18.80;58.10;;;;;;5076073;28;20025;-69
2022/04/19 12:46:12;;;;;;;5.30;3.92;;;18.60;57.30;;;;;;5075813;28;20025;-69
2022/04/19 12:48:37;;;;;;;8.98;3.72;;;18.20;59.50;;;;;;5074631;28;20032;-69
2022/04/19 12:51:04;;;;;;;4.55;3.65;;;18.60;59.40;;;;;;5075613;28;20394;-69
2022/04/19 12:53:30;;;;;;;5.88;3.92;;;18.50;58.90;;;;;;5075702;28;20027;-69
2022/04/19 12:57:06;;;;;;;7.70;3.85;;;18.30;58.30;;;;;;5075583;28;20020;-69
2022/04/19 12:59:21;;;;;;;5.82;4.05;;;18.50;57.90;;;;;;5075326;28;20025;-68
2022/04/19 13:01:46;;;;;;;6.18;4.07;;;18.50;58.20;;;;;;5074377;28;20372;-68
2022/04/19 13:04:12;;;;;;;4.95;3.10;;;18.30;58.10;;;;;;5075476;28;20029;-69
2022/04/19 13:12:25;;;;;;;6.18;3.70;;;18.60;57.30;;;;;;5075106;28;20035;-68
2022/04/19 13:14:53;;;;;;;5.07;2.97;;;18.70;58.70;;;;;;5075266;28;20017;-68
2022/04/19 13:17:20;;;;;;;3.35;1.85;;;18.80;59.00;;;;;;5075278;28;20459;-69
2022/04/19 13:19:46;;;;;;;8.13;2.35;;;19.00;54.20;;;;;;5075143;28;20111;-68
2022/04/19 13:22:12;;;;;;;4.50;2.85;;;18.60;56.00;;;;;;5075365;28;20112;-69
2022/04/19 13:24:39;;;;;;;6.45;2.88;;;18.30;56.10;;;;;;5075360;28;20035;-69
2022/04/19 13:27:06;;;;;;;4.25;2.70;;;18.00;56.20;;;;;;5075233;28;20025;-68
2022/04/19 13:29:33;;;;;;;4.28;3.00;;;18.40;58.10;;;;;;5074681;28;20047;-70
2022/04/19 13:31:58;;;;;;;4.75;2.95;;;18.40;58.10;;;;;;5074791;28;20372;-69
2022/04/19 13:34:24;;;;;;;4.57;2.70;;;18.50;57.80;;;;;;5074710;28;20103;-70
2022/04/19 13:36:51;;;;;;;4.40;2.20;;;18.60;57.90;;;;;;5074644;28;20021;-69
2022/04/19 13:39:17;;;;;;;3.22;1.88;;;18.50;55.40;;;;;;5074636;28;20031;-69
2022/04/19 13:41:42;;;;;;;5.10;2.35;;;18.40;53.90;;;;;;5074975;28;20024;-69
2022/04/19 13:44:10;;;;;;;3.10;2.40;;;18.60;56.40;;;;;;5074955;28;20029;-70
2022/04/19 13:46:38;;;;;;;2.65;1.92;;;18.10;52.90;;;;;;5074639;28;20482;-70
2022/04/19 13:49:04;;;;;;;5.93;2.00;;;17.90;53.30;;;;;;5074479;28;20020;-69
2022/04/19 13:51:30;;;;;;;3.28;1.60;;;18.00;54.50;;;;;;5074402;28;20028;-69
2022/04/19 13:53:56;;;;;;;2.53;1.67;;;18.20;53.10;;;;;;5073867;28;20405;-69
2022/04/19 13:56:21;;;;;;;1.60;1.50;;;18.40;52.00;;;;;;5074665;28;20034;-70
2022/04/19 13:58:47;;;;;;;1.40;1.30;;;18.30;49.70;;;;;;5074522;28;20031;-69
2022/04/19 14:01:12;;;;;;;5.57;1.38;;;17.90;49.10;;;;;;5074256;28;20536;-69
2022/04/19 14:03:38;;;;;;;4.70;1.50;;;18.10;50.20;;;;;;5074265;28;20479;-70
2022/04/19 14:06:03;;;;;;;6.82;1.50;;;18.30;49.20;;;;;;5074471;28;20482;-69
2022/04/19 14:08:29;;;;;;;2.05;1.25;;;18.50;49.80;;;;;;5072975;28;20100;-69
2022/04/19 14:10:58;;;;;;;2.70;1.27;;;18.30;47.70;;;;;;5074141;28;20020;-69
2022/04/19 14:13:24;;;;;;;3.13;1.33;;;17.90;47.70;;;;;;5074325;28;20043;-69
2022/04/19 14:15:51;;;;;;;2.25;1.35;;;18.20;49.40;;;;;;5073252;28;20429;-70
2022/04/19 14:18:17;;;;;;;3.08;1.25;;;18.00;48.00;;;;;;5073981;28;20380;-69
2022/04/19 14:20:43;;;;;;;2.17;1.02;;;18.00;48.30;;;;;;5074050;28;20407;-70